Time;durP1;ratioP1;P1;durP2;ratioP2;P2;SDS_P1;SDS_P2;PMS_P1;PMS_P2;Temp;Humidity;BMP_temperature;BMP_pressure;BME280_temperature;BME280_humidity;BME280_pressure;Samples;Min_cycle;Max_cycle;Signal;HPM_P1;HPM_P2
2022/07/24 00:02:22;;;;;;;;;;;22.70;99.90;;;;;;5089839;28;20439;-72
2022/07/24 00:04:48;;;;;;;;;;;22.70;99.90;;;;;;5089982;28;19908;-73
2022/07/24 00:07:13;;;;;;;;;;;22.70;99.90;;;;;;5090135;28;19923;-72
2022/07/24 00:09:39;;;;;;;;;;;22.70;99.90;;;;;;5090464;28;20360;-73
2022/07/24 00:12:05;;;;;;;;;;;22.70;99.90;;;;;;5092342;28;19965;-73
2022/07/24 00:14:30;;;;;;;;;;;22.70;99.90;;;;;;5093770;28;20320;-73
2022/07/24 00:16:56;;;;;;;;;;;22.80;99.90;;;;;;5093683;28;20373;-73
2022/07/24 00:19:21;;;;;;;;;;;22.80;99.90;;;;;;5092531;28;20330;-72
2022/07/24 00:21:47;;;;;;;;;;;22.80;99.90;;;;;;5093703;28;19980;-72
2022/07/24 00:24:12;;;;;;;;;;;22.90;99.90;;;;;;5093731;28;20368;-71
2022/07/24 00:26:38;;;;;;;;;;;22.90;99.90;;;;;;5093757;28;19958;-72
2022/07/24 00:29:03;;;;;;;;;;;22.90;99.90;;;;;;5092168;28;20372;-72
2022/07/24 00:31:29;;;;;;;;;;;22.90;99.90;;;;;;5091961;28;20257;-73
2022/07/24 00:33:54;;;;;;;;;;;22.90;99.90;;;;;;5091870;28;20367;-72
2022/07/24 00:36:20;;;;;;;;;;;22.80;99.90;;;;;;5093192;28;19916;-73
2022/07/24 00:38:45;;;;;;;;;;;22.80;99.90;;;;;;5093096;28;19924;-73
2022/07/24 00:41:11;;;;;;;;;;;22.80;99.90;;;;;;5093097;28;19939;-73
2022/07/24 00:43:56;;;;;;;;;;;22.60;99.90;;;;;;5091575;28;19969;-73
2022/07/24 00:46:21;;;;;;;;;;;22.70;99.90;;;;;;5093018;28;19918;-73
2022/07/24 00:48:47;;;;;;;;;;;22.60;99.90;;;;;;5092891;28;20350;-73
2022/07/24 00:51:13;;;;;;;;;;;22.60;99.90;;;;;;5093217;28;19912;-73
2022/07/24 00:53:38;;;;;;;;;;;22.50;99.90;;;;;;5093310;28;19955;-73
2022/07/24 00:56:04;;;;;;;;;;;22.50;99.90;;;;;;5092852;28;19947;-73
2022/07/24 00:58:29;;;;;;;;;;;22.40;99.90;;;;;;5093029;28;19924;-73
2022/07/24 01:00:55;;;;;;;;;;;22.30;99.90;;;;;;5092753;28;19913;-73
2022/07/24 01:03:20;;;;;;;;;;;22.20;99.90;;;;;;5091315;28;19916;-73
2022/07/24 01:05:46;;;;;;;;;;;22.20;99.90;;;;;;5092711;28;19954;-73
2022/07/24 01:08:11;;;;;;;;;;;22.10;99.90;;;;;;5093032;28;20365;-73
2022/07/24 01:10:37;;;;;;;;;;;22.10;99.90;;;;;;5092745;28;19915;-72
2022/07/24 01:13:03;;;;;;;;;;;22.10;99.90;;;;;;5092867;28;19923;-72
2022/07/24 01:15:28;;;;;;;;;;;22.00;99.90;;;;;;5093242;28;19908;-72
2022/07/24 01:17:54;;;;;;;;;;;22.00;99.90;;;;;;5092836;28;20390;-73
2022/07/24 01:20:19;;;;;;;;;;;22.00;99.90;;;;;;5092412;28;20423;-73
2022/07/24 01:22:45;;;;;;;;;;;21.90;99.90;;;;;;5090094;28;19916;-73
2022/07/24 01:25:10;;;;;;;;;;;21.90;99.90;;;;;;5091019;28;20427;-72
2022/07/24 01:27:36;;;;;;;;;;;21.80;99.90;;;;;;5092077;28;19924;-73
2022/07/24 01:30:02;;;;;;;;;;;21.80;99.90;;;;;;5092213;28;19999;-72
2022/07/24 01:32:28;;;;;;;;;;;21.80;99.90;;;;;;5092231;28;20282;-73
2022/07/24 01:34:53;;;;;;;;;;;21.80;99.90;;;;;;5092186;28;19911;-72
2022/07/24 01:37:19;;;;;;;;;;;21.80;99.90;;;;;;5092210;28;20014;-73
2022/07/24 01:39:44;;;;;;;;;;;21.80;99.90;;;;;;5090614;28;19918;-73
2022/07/24 01:42:10;;;;;;;;;;;21.80;99.90;;;;;;5092351;28;19950;-73
2022/07/24 01:44:35;;;;;;;;;;;21.80;99.90;;;;;;5091906;28;19935;-73
2022/07/24 01:47:01;;;;;;;;;;;21.80;99.90;;;;;;5090736;28;19916;-73
2022/07/24 01:49:27;;;;;;;;;;;21.70;99.90;;;;;;5091664;28;19931;-72
2022/07/24 01:51:53;;;;;;;;;;;21.70;99.90;;;;;;5092032;28;19917;-72
2022/07/24 01:54:18;;;;;;;;;;;21.70;99.90;;;;;;5091737;28;19915;-73
2022/07/24 01:56:43;;;;;;;;;;;21.70;99.90;;;;;;5090363;28;20364;-72
2022/07/24 01:59:09;;;;;;;;;;;21.70;99.90;;;;;;5090459;28;19908;-72
2022/07/24 02:01:35;;;;;;;;;;;21.70;99.90;;;;;;5091993;28;20359;-73
2022/07/24 02:04:00;;;;;;;;;;;21.70;99.90;;;;;;5091675;28;19919;-72
2022/07/24 02:06:26;;;;;;;;;;;21.70;99.90;;;;;;5091709;28;20352;-73
2022/07/24 02:08:51;;;;;;;;;;;21.70;99.90;;;;;;5090177;28;19912;-72
2022/07/24 02:11:18;;;;;;;;;;;21.70;99.90;;;;;;5090300;28;19912;-73
2022/07/24 02:13:45;;;;;;;;;;;21.70;99.90;;;;;;5092078;28;19920;-73
2022/07/24 02:16:10;;;;;;;;;;;21.70;99.90;;;;;;5091744;28;19912;-73
2022/07/24 02:18:36;;;;;;;;;;;21.70;99.90;;;;;;5090126;28;19920;-74
2022/07/24 02:21:02;;;;;;;;;;;21.70;99.90;;;;;;5091223;28;19954;-73
2022/07/24 02:23:27;;;;;;;;;;;21.70;99.90;;;;;;5089922;28;19920;-73
2022/07/24 02:25:53;;;;;;;;;;;21.70;99.90;;;;;;5090036;28;19908;-73
2022/07/24 02:28:18;;;;;;;;;;;21.70;99.90;;;;;;5091564;28;19920;-72
2022/07/24 02:30:44;;;;;;;;;;;21.70;99.90;;;;;;5091153;28;20003;-73
2022/07/24 02:33:10;;;;;;;;;;;21.70;99.90;;;;;;5090604;28;19916;-73
2022/07/24 02:35:36;;;;;;;;;;;21.70;99.90;;;;;;5090918;28;19912;-72
2022/07/24 02:38:02;;;;;;;;;;;21.70;99.90;;;;;;5089521;28;19954;-72
2022/07/24 02:40:27;;;;;;;;;;;21.70;99.90;;;;;;5089627;28;19916;-72
2022/07/24 02:42:53;;;;;;;;;;;21.70;99.90;;;;;;5090005;28;20047;-72
2022/07/24 02:45:18;;;;;;;;;;;21.80;99.90;;;;;;5090749;28;19908;-73
2022/07/24 02:47:51;;;;;;;;;;;21.80;99.90;;;;;;5089649;28;19916;-72
2022/07/24 02:50:17;;;;;;;;;;;21.70;99.90;;;;;;5090795;28;20010;-72
2022/07/24 02:52:43;;;;;;;;;;;21.70;99.90;;;;;;5089350;28;19999;-72
2022/07/24 02:55:09;;;;;;;;;;;21.70;99.90;;;;;;5090628;28;20050;-74
2022/07/24 02:57:35;;;;;;;;;;;21.60;99.90;;;;;;5090842;28;20282;-73
2022/07/24 03:00:01;;;;;;;;;;;21.60;99.90;;;;;;5090829;28;19920;-74
2022/07/24 03:02:26;;;;;;;;;;;21.60;99.90;;;;;;5089344;28;19920;-74
2022/07/24 03:04:52;;;;;;;;;;;21.60;99.90;;;;;;5090589;28;20048;-73
2022/07/24 03:07:17;;;;;;;;;;;21.70;99.90;;;;;;5089442;28;19920;-73
2022/07/24 03:09:43;;;;;;;;;;;21.70;99.90;;;;;;5090661;28;19957;-73
2022/07/24 03:12:08;;;;;;;;;;;21.70;99.90;;;;;;5090871;28;19921;-74
2022/07/24 03:14:34;;;;;;;;;;;21.70;99.90;;;;;;5090632;28;20002;-73
2022/07/24 03:16:59;;;;;;;;;;;21.70;99.90;;;;;;5091060;28;19939;-74
2022/07/24 03:19:25;;;;;;;;;;;21.60;99.90;;;;;;5090577;28;19908;-73
2022/07/24 03:21:50;;;;;;;;;;;21.60;99.90;;;;;;5090310;28;19920;-73
2022/07/24 03:24:16;;;;;;;;;;;21.60;99.90;;;;;;5090533;28;19931;-73
2022/07/24 03:26:41;;;;;;;;;;;21.60;99.90;;;;;;5090389;28;20728;-74
2022/07/24 03:29:07;;;;;;;;;;;21.70;99.90;;;;;;5090403;28;19999;-74
2022/07/24 03:31:32;;;;;;;;;;;21.70;99.90;;;;;;5090596;28;20003;-74
2022/07/24 03:33:58;;;;;;;;;;;21.70;99.90;;;;;;5090788;28;20398;-73
2022/07/24 03:36:23;;;;;;;;;;;21.70;99.90;;;;;;5090403;28;19954;-73
2022/07/24 03:38:49;;;;;;;;;;;21.80;99.90;;;;;;5090346;28;19966;-73
2022/07/24 03:41:14;;;;;;;;;;;21.80;99.90;;;;;;5090216;28;20022;-73
2022/07/24 03:43:40;;;;;;;;;;;21.80;99.90;;;;;;5089178;28;20291;-73
2022/07/24 03:46:05;;;;;;;;;;;21.90;99.90;;;;;;5093171;28;19908;-73
2022/07/24 03:48:31;;;;;;;;;;;21.90;99.90;;;;;;5093125;28;20444;-73
2022/07/24 03:50:56;;;;;;;;;;;21.90;99.90;;;;;;5094338;28;19915;-73
2022/07/24 03:53:22;;;;;;;;;;;22.00;99.90;;;;;;5094682;28;19982;-73
2022/07/24 03:55:47;;;;;;;;;;;22.00;99.90;;;;;;5092781;28;19939;-73
2022/07/24 03:58:13;;;;;;;;;;;22.10;99.90;;;;;;5094561;28;20055;-74
2022/07/24 04:00:38;;;;;;;;;;;22.10;99.90;;;;;;5094239;28;19919;-73
2022/07/24 04:03:04;;;;;;;;;;;22.20;99.90;;;;;;5094522;28;20427;-73
2022/07/24 04:05:29;;;;;;;;;;;22.20;99.90;;;;;;5094000;28;19909;-73
2022/07/24 04:07:55;;;;;;;;;;;22.20;99.90;;;;;;5093814;28;19955;-73
2022/07/24 04:10:21;;;;;;;;;;;22.30;99.90;;;;;;5092428;28;20417;-73
2022/07/24 04:12:46;;;;;;;;;;;22.30;99.90;;;;;;5094027;28;20288;-73
2022/07/24 04:15:12;;;;;;;;;;;22.40;99.90;;;;;;5093575;28;19951;-73
2022/07/24 04:17:38;;;;;;;;;;;22.40;99.90;;;;;;5094011;28;19916;-71
2022/07/24 04:20:04;;;;;;;;;;;22.50;99.90;;;;;;5093537;28;19947;-73
2022/07/24 04:22:29;;;;;;;;;;;22.50;99.90;;;;;;5093692;28;20368;-72
2022/07/24 04:24:55;;;;;;;;;;;22.50;99.90;;;;;;5093350;28;19916;-72
2022/07/24 04:27:20;;;;;;;;;;;22.60;99.90;;;;;;5093594;28;19920;-72
2022/07/24 04:29:46;;;;;;;;;;;22.60;99.90;;;;;;5093447;28;20013;-73
2022/07/24 04:32:11;;;;;;;;;;;22.70;99.90;;;;;;5093241;28;19920;-72
2022/07/24 04:34:37;;;;;;;;;;;22.80;99.90;;;;;;5093323;28;19920;-73
2022/07/24 04:37:02;;;;;;;;;;;22.80;99.90;;;;;;5093220;28;20458;-72
2022/07/24 04:39:28;;;;;;;;;;;22.80;99.90;;;;;;5091860;28;20010;-73
2022/07/24 04:41:54;;;;;;;;;;;22.90;99.90;;;;;;5093210;28;20061;-73
2022/07/24 04:44:19;;;;;;;;;;;23.00;99.90;;;;;;5093328;28;19908;-73
2022/07/24 04:46:45;;;;;;;;;;;23.10;99.90;;;;;;5093523;28;19927;-73
2022/07/24 04:49:10;;;;;;;;;;;23.20;99.90;;;;;;5093515;28;20008;-73
2022/07/24 04:51:36;;;;;;;;;;;23.20;99.90;;;;;;5093169;28;20360;-73
2022/07/24 04:54:01;;;;;;;;;;;23.30;99.90;;;;;;5093194;28;20352;-73
2022/07/24 04:56:31;;;;;;;;;;;23.30;99.90;;;;;;5091819;28;19957;-73
2022/07/24 04:58:56;;;;;;;;;;;23.40;99.90;;;;;;5092811;28;19951;-73
2022/07/24 05:01:22;;;;;;;;;;;23.40;99.90;;;;;;5092798;28;20402;-72
2022/07/24 05:03:47;;;;;;;;;;;23.50;99.90;;;;;;5091373;28;20277;-73
2022/07/24 05:06:13;;;;;;;;;;;23.60;99.90;;;;;;5092893;28;19930;-73
2022/07/24 05:08:39;;;;;;;;;;;23.60;99.90;;;;;;5093494;28;19974;-73
2022/07/24 05:11:04;;;;;;;;;;;23.70;99.90;;;;;;5091559;28;19908;-73
2022/07/24 05:13:29;;;;;;;;;;;23.80;99.90;;;;;;5092782;28;19970;-73
2022/07/24 05:15:55;;;;;;;;;;;23.80;99.90;;;;;;5092780;28;19908;-72
2022/07/24 05:18:21;;;;;;;;;;;23.90;99.90;;;;;;5092986;28;20312;-73
2022/07/24 05:20:46;;;;;;;;;;;23.90;99.90;;;;;;5092453;28;20012;-72
2022/07/24 05:23:12;;;;;;;;;;;23.90;99.90;;;;;;5092709;28;20308;-73
2022/07/24 05:25:37;;;;;;;;;;;24.00;99.90;;;;;;5092368;28;19961;-72
2022/07/24 05:28:03;;;;;;;;;;;24.00;99.90;;;;;;5092504;28;19939;-73
2022/07/24 05:30:28;;;;;;;;;;;24.00;99.90;;;;;;5092080;28;19952;-73
2022/07/24 05:32:54;;;;;;;;;;;24.10;99.90;;;;;;5090554;28;19927;-72
2022/07/24 05:35:19;;;;;;;;;;;24.10;99.90;;;;;;5092210;28;20356;-73
2022/07/24 05:37:45;;;;;;;;;;;24.20;99.90;;;;;;5090434;28;19943;-73
2022/07/24 05:40:11;;;;;;;;;;;24.20;99.90;;;;;;5092373;28;19926;-73
2022/07/24 05:42:36;;;;;;;;;;;24.30;99.90;;;;;;5092107;28;19916;-73
2022/07/24 05:45:03;;;;;;;;;;;24.40;99.90;;;;;;5090454;28;19959;-74
2022/07/24 05:47:28;;;;;;;;;;;24.50;99.90;;;;;;5092193;28;20371;-74
2022/07/24 05:49:54;;;;;;;;;;;24.60;99.90;;;;;;5092042;28;20004;-73
2022/07/24 05:52:19;;;;;;;;;;;24.70;99.90;;;;;;5090557;28;19962;-73
2022/07/24 05:54:45;;;;;;;;;;;24.80;99.90;;;;;;5091939;28;20383;-73
2022/07/24 05:57:10;;;;;;;;;;;24.90;99.90;;;;;;5091808;28;19941;-73
2022/07/24 05:59:36;;;;;;;;;;;24.90;99.90;;;;;;5090836;28;20188;-73
2022/07/24 06:02:03;;;;;;;;;;;25.00;99.90;;;;;;5091779;28;20011;-73
2022/07/24 06:04:29;;;;;;;;;;;25.00;99.90;;;;;;5092075;28;20650;-73
2022/07/24 06:06:55;;;;;;;;;;;25.10;99.90;;;;;;5091761;28;19998;-74
2022/07/24 06:09:20;;;;;;;;;;;25.20;99.90;;;;;;5091600;28;19999;-73
2022/07/24 06:11:46;;;;;;;;;;;25.30;99.90;;;;;;5091595;28;19961;-73
2022/07/24 06:14:11;;;;;;;;;;;25.40;99.90;;;;;;5091576;28;20023;-72
2022/07/24 06:16:37;;;;;;;;;;;25.50;99.90;;;;;;5089991;28;20370;-73
2022/07/24 06:19:02;;;;;;;;;;;25.60;99.90;;;;;;5091420;28;19916;-73
2022/07/24 06:21:28;;;;;;;;;;;25.60;99.90;;;;;;5091175;28;19963;-72
2022/07/24 06:23:53;;;;;;;;;;;25.40;99.90;;;;;;5089859;28;20283;-73
2022/07/24 06:26:18;;;;;;;;;;;25.50;99.90;;;;;;5091347;28;19982;-73
2022/07/24 06:28:44;;;;;;;;;;;25.60;99.90;;;;;;5091622;28;19916;-72
2022/07/24 06:31:10;;;;;;;;;;;25.70;99.90;;;;;;5091417;28;19912;-72
2022/07/24 06:33:35;;;;;;;;;;;25.80;99.90;;;;;;5091601;28;19916;-73
2022/07/24 06:36:00;;;;;;;;;;;25.80;99.90;;;;;;5091093;28;19963;-71
2022/07/24 06:38:26;;;;;;;;;;;25.90;99.90;;;;;;5090969;28;20288;-73
2022/07/24 06:40:51;;;;;;;;;;;26.00;99.90;;;;;;5089647;28;19963;-73
2022/07/24 06:43:17;;;;;;;;;;;26.10;99.90;;;;;;5089433;28;20324;-72
2022/07/24 06:45:43;;;;;;;;;;;26.10;99.90;;;;;;5090983;28;19908;-72
2022/07/24 06:48:08;;;;;;;;;;;26.10;99.90;;;;;;5089810;28;19956;-73
2022/07/24 06:50:34;;;;;;;;;;;26.10;99.90;;;;;;5090935;28;19986;-72
2022/07/24 06:52:59;;;;;;;;;;;26.10;99.90;;;;;;5091199;28;19916;-73
2022/07/24 06:55:25;;;;;;;;;;;26.30;99.90;;;;;;5090944;28;20352;-73
2022/07/24 06:57:50;;;;;;;;;;;26.40;99.90;;;;;;5090953;28;19927;-74
2022/07/24 07:00:16;;;;;;;;;;;26.40;99.90;;;;;;5089345;28;20368;-73
2022/07/24 07:02:41;;;;;;;;;;;26.60;99.90;;;;;;5090828;28;19962;-73
2022/07/24 07:05:08;;;;;;;;;;;26.60;99.90;;;;;;5090819;28;19991;-73
2022/07/24 07:07:35;;;;;;;;;;;26.60;99.90;;;;;;5090490;28;19942;-74
2022/07/24 07:10:01;;;;;;;;;;;26.80;99.90;;;;;;5089484;28;19918;-72
2022/07/24 07:12:26;;;;;;;;;;;26.90;99.50;;;;;;5090456;28;20385;-71
2022/07/24 07:14:52;;;;;;;;;;;26.90;99.30;;;;;;5090645;28;20486;-70
2022/07/24 07:17:17;;;;;;;;;;;27.00;98.90;;;;;;5090934;28;19977;-72
2022/07/24 07:19:43;;;;;;;;;;;27.00;98.60;;;;;;5091354;28;19908;-71
2022/07/24 07:22:09;;;;;;;;;;;27.00;98.30;;;;;;5095154;28;20352;-74
2022/07/24 07:24:34;;;;;;;;;;;26.90;98.70;;;;;;5094713;28;20376;-70
2022/07/24 07:27:00;;;;;;;;;;;27.00;97.60;;;;;;5094822;28;19916;-71
2022/07/24 07:29:25;;;;;;;;;;;27.00;97.70;;;;;;5094661;28;20278;-71
2022/07/24 07:31:51;;;;;;;;;;;27.00;97.70;;;;;;5094688;28;20295;-71
2022/07/24 07:34:16;;;;;;;;;;;27.10;98.30;;;;;;5094322;28;19908;-72
2022/07/24 07:36:44;;;;;;;;;;;27.20;98.00;;;;;;5094450;28;19908;-73
2022/07/24 07:39:10;;;;;;;;;;;27.20;97.30;;;;;;5094240;28;19930;-71
2022/07/24 07:41:36;;;;;;;;;;;27.30;97.20;;;;;;5094215;28;20011;-71
2022/07/24 07:44:01;;;;;;;;;;;27.40;96.80;;;;;;5094230;28;20359;-72
2022/07/24 07:46:27;;;;;;;;;;;27.50;97.10;;;;;;5092861;28;19944;-70
2022/07/24 07:48:52;;;;;;;;;;;27.60;96.20;;;;;;5094155;28;19909;-71
2022/07/24 07:51:18;;;;;;;;;;;27.70;96.20;;;;;;5094234;28;20295;-71
2022/07/24 07:53:44;;;;;;;;;;;27.80;95.20;;;;;;5094547;28;19927;-72
2022/07/24 07:56:09;;;;;;;;;;;27.70;95.20;;;;;;5094289;28;20329;-72
2022/07/24 07:58:35;;;;;;;;;;;27.80;94.80;;;;;;5094331;28;19916;-71
2022/07/24 08:01:00;;;;;;;;;;;27.90;94.30;;;;;;5093938;28;19922;-71
2022/07/24 08:03:26;;;;;;;;;;;27.90;94.80;;;;;;5094232;28;20350;-72
2022/07/24 08:05:51;;;;;;;;;;;28.00;94.00;;;;;;5093966;28;19916;-71
2022/07/24 08:08:17;;;;;;;;;;;28.10;93.20;;;;;;5094169;28;20089;-71
2022/07/24 08:10:43;;;;;;;;;;;28.30;93.40;;;;;;5093889;28;19955;-72
2022/07/24 08:13:08;;;;;;;;;;;28.50;93.30;;;;;;5092607;28;20002;-71
2022/07/24 08:15:34;;;;;;;;;;;28.60;93.10;;;;;;5093990;28;20015;-73
2022/07/24 08:17:59;;;;;;;;;;;28.80;92.90;;;;;;5092707;28;19912;-72
2022/07/24 08:20:25;;;;;;;;;;;28.80;92.60;;;;;;5093831;28;19916;-72
2022/07/24 08:22:51;;;;;;;;;;;28.90;91.50;;;;;;5093944;28;20015;-72
2022/07/24 08:25:17;;;;;;;;;;;29.00;91.30;;;;;;5093653;28;20015;-72
2022/07/24 08:27:43;;;;;;;;;;;29.30;90.50;;;;;;5093763;28;19928;-72
2022/07/24 08:30:09;;;;;;;;;;;29.30;90.60;;;;;;5091376;28;19921;-72
2022/07/24 08:32:34;;;;;;;;;;;29.40;89.40;;;;;;5085853;28;19917;-71
2022/07/24 08:35:00;;;;;;;;;;;29.30;89.10;;;;;;5073184;28;20346;-72
2022/07/24 08:37:25;;;;;;;;;;;29.30;90.00;;;;;;5073364;28;20334;-72
2022/07/24 08:39:51;;;;;;;;;;;29.50;90.20;;;;;;5073311;28;20284;-73
2022/07/24 08:42:16;;;;;;;;;;;29.70;88.40;;;;;;5073361;28;20003;-73
2022/07/24 08:44:42;;;;;;;;;;;30.00;88.80;;;;;;5073287;28;20348;-73
2022/07/24 08:47:10;;;;;;;;;;;30.30;87.30;;;;;;5073275;28;20015;-72
2022/07/24 08:49:36;;;;;;;;;;;30.50;86.70;;;;;;5088683;28;19959;-72
2022/07/24 08:52:03;;;;;;;;;;;30.60;86.10;;;;;;5072894;28;19952;-72
2022/07/24 08:54:28;;;;;;;;;;;30.80;86.80;;;;;;5083743;28;19915;-72
2022/07/24 08:56:54;;;;;;;;;;;30.80;85.60;;;;;;5073121;28;19920;-72
2022/07/24 08:59:21;;;;;;;;;;;30.70;84.80;;;;;;5072798;28;19954;-72
2022/07/24 09:01:50;;;;;;;;;;;30.60;85.30;;;;;;5072816;28;19927;-71
2022/07/24 09:04:30;;;;;;;;;;;30.50;84.80;;;;;;5072903;28;19916;-72
2022/07/24 09:06:57;;;;;;;;;;;30.60;84.20;;;;;;5072918;28;20223;-72
2022/07/24 09:09:22;;;;;;;;;;;30.50;84.70;;;;;;5072613;28;20303;-72
2022/07/24 09:11:48;;;;;;;;;;;30.30;83.80;;;;;;5072854;28;19916;-73
2022/07/24 09:14:47;;;;;;;;;;;30.10;84.40;;;;;;5072364;28;19909;-72
2022/07/24 09:17:06;;;;;;;;;;;29.90;84.70;;;;;;5069550;28;19921;-72
2022/07/24 09:19:45;;;;;;;;;;;29.70;85.10;;;;;;5072094;28;19917;-73
2022/07/24 09:22:15;;;;;;;;;;;29.70;86.00;;;;;;5072282;28;19952;-75
2022/07/24 09:24:41;;;;;;;;;;;29.70;85.50;;;;;;5072191;28;19915;-75
2022/07/24 09:27:13;;;;;;;;;;;29.60;86.80;;;;;;5072333;28;19920;-75
2022/07/24 09:29:38;;;;;;;;;;;29.70;86.30;;;;;;5072094;28;19919;-75
2022/07/24 09:32:04;;;;;;;;;;;29.70;85.50;;;;;;5070584;28;19975;-76
2022/07/24 09:34:36;;;;;;;;;;;29.70;86.40;;;;;;5087436;28;20001;-76
2022/07/24 09:37:03;;;;;;;;;;;29.70;85.90;;;;;;5087645;28;20015;-75
2022/07/24 09:39:31;;;;;;;;;;;29.80;86.70;;;;;;5087219;28;20356;-72
2022/07/24 09:41:58;;;;;;;;;;;29.80;85.80;;;;;;5071634;28;19921;-71
2022/07/24 09:44:25;;;;;;;;;;;29.60;86.10;;;;;;5071232;28;19961;-72
2022/07/24 09:47:10;;;;;;;;;;;29.40;86.40;;;;;;5071851;28;20361;-72
2022/07/24 09:49:36;;;;;;;;;;;29.20;87.00;;;;;;5071612;28;19915;-71
2022/07/24 09:52:04;;;;;;;;;;;29.00;87.50;;;;;;5071718;28;20435;-71
2022/07/24 09:54:31;;;;;;;;;;;28.90;88.80;;;;;;5071605;28;20300;-72
2022/07/24 09:57:17;;;;;;;;;;;28.90;88.40;;;;;;5086955;28;20008;-72
2022/07/24 09:59:47;;;;;;;;;;;28.90;89.00;;;;;;5071433;28;19916;-72
2022/07/24 10:02:14;;;;;;;;;;;28.90;88.70;;;;;;5071383;28;20372;-72
2022/07/24 10:04:41;;;;;;;;;;;29.00;88.00;;;;;;5071629;28;19935;-72
2022/07/24 10:07:09;;;;;;;;;;;29.00;88.20;;;;;;5071386;28;19916;-72
2022/07/24 10:09:34;;;;;;;;;;;28.90;88.70;;;;;;5071170;28;19919;-71
2022/07/24 10:12:03;;;;;;;;;;;28.80;87.90;;;;;;5071155;28;19921;-72
2022/07/24 10:14:29;;;;;;;;;;;28.70;88.40;;;;;;5069789;28;19909;-71
2022/07/24 10:17:03;;;;;;;;;;;28.60;88.80;;;;;;5071338;28;20349;-71
2022/07/24 10:19:34;;;;;;;;;;;28.50;88.90;;;;;;5071152;28;19909;-72
2022/07/24 10:22:05;;;;;;;;;;;28.50;88.80;;;;;;5071277;28;19928;-72
2022/07/24 10:24:33;;;;;;;;;;;28.40;89.40;;;;;;5069602;28;19919;-72
2022/07/24 10:27:03;;;;;;;;;;;28.40;88.60;;;;;;5071136;28;19938;-72
2022/07/24 10:29:32;;;;;;;;;;;28.20;89.50;;;;;;5071090;28;20013;-71
2022/07/24 10:31:58;;;;;;;;;;;28.20;88.80;;;;;;5071108;28;19991;-71
2022/07/24 10:34:24;;;;;;;;;;;28.10;88.90;;;;;;5071379;28;20322;-72
2022/07/24 10:37:01;;;;;;;;;;;28.00;89.00;;;;;;5070957;28;19916;-71
2022/07/24 10:39:59;;;;;;;;;;;28.00;89.30;;;;;;5070784;28;19924;-72
2022/07/24 10:42:24;;;;;;;;;;;28.00;89.70;;;;;;5036985;28;19927;-71
2022/07/24 10:45:09;;;;;;;;;;;28.10;89.80;;;;;;5070965;28;20375;-72
2022/07/24 10:47:34;;;;;;;;;;;28.10;90.00;;;;;;5071092;28;19916;-70
2022/07/24 10:50:01;;;;;;;;;;;28.10;90.00;;;;;;5070863;28;20332;-71
2022/07/24 10:52:28;;;;;;;;;;;28.20;90.30;;;;;;5086145;28;19920;-71
2022/07/24 10:55:12;;;;;;;;;;;28.10;90.50;;;;;;5069962;28;19908;-71
2022/07/24 10:57:45;;;;;;;;;;;28.10;90.10;;;;;;5070655;28;19963;-70
2022/07/24 11:00:25;;;;;;;;;;;28.00;90.10;;;;;;5070365;28;19961;-71
2022/07/24 11:03:00;;;;;;;;;;;28.00;90.30;;;;;;5070370;28;19998;-71
2022/07/24 11:05:26;;;;;;;;;;;28.00;90.20;;;;;;5069449;28;19908;-71
2022/07/24 11:08:10;;;;;;;;;;;28.00;90.60;;;;;;5070879;28;19927;-70
2022/07/24 11:10:52;;;;;;;;;;;28.10;90.40;;;;;;5070536;28;20362;-70
2022/07/24 11:13:32;;;;;;;;;;;28.20;90.40;;;;;;5070612;28;19920;-70
2022/07/24 11:16:10;;;;;;;;;;;28.30;89.60;;;;;;5070515;28;19908;-72
2022/07/24 11:18:36;;;;;;;;;;;28.30;88.90;;;;;;5070922;28;19916;-72
2022/07/24 11:21:02;;;;;;;;;;;28.30;89.20;;;;;;5070431;28;20382;-71
2022/07/24 11:23:27;;;;;;;;;;;28.30;89.80;;;;;;5070665;28;19922;-72
2022/07/24 11:26:11;;;;;;;;;;;28.50;90.20;;;;;;5069938;28;19909;-71
2022/07/24 11:28:37;;;;;;;;;;;28.80;88.30;;;;;;5070684;28;19916;-72
2022/07/24 11:31:03;;;;;;;;;;;28.90;88.60;;;;;;5070147;28;19908;-72
2022/07/24 11:33:29;;;;;;;;;;;29.00;88.90;;;;;;5069843;28;19916;-72
2022/07/24 11:35:55;;;;;;;;;;;29.20;89.50;;;;;;5070411;28;19909;-72
2022/07/24 11:38:27;;;;;;;;;;;29.10;90.50;;;;;;5070168;28;20342;-71
2022/07/24 11:41:03;;;;;;;;;;;29.00;90.50;;;;;;5070106;28;19912;-72
2022/07/24 11:43:29;;;;;;;;;;;28.80;90.80;;;;;;5070740;28;19917;-72
2022/07/24 11:45:54;;;;;;;;;;;28.70;91.10;;;;;;5070060;28;19920;-72
2022/07/24 11:48:20;;;;;;;;;;;28.60;91.80;;;;;;5070383;28;20264;-72
2022/07/24 11:50:45;;;;;;;;;;;28.50;92.40;;;;;;5069875;28;19963;-72
2022/07/24 11:53:11;;;;;;;;;;;28.40;92.90;;;;;;5070374;28;20532;-72
2022/07/24 11:55:37;;;;;;;;;;;28.30;93.50;;;;;;5069778;28;19913;-69
2022/07/24 11:58:02;;;;;;;;;;;28.20;94.20;;;;;;5070251;28;19926;-71
2022/07/24 12:00:28;;;;;;;;;;;28.00;94.50;;;;;;5069788;28;20276;-70
2022/07/24 12:02:56;;;;;;;;;;;27.90;95.60;;;;;;5069906;28;19917;-70
2022/07/24 12:05:37;;;;;;;;;;;27.70;96.50;;;;;;5070111;28;20372;-70
2022/07/24 12:08:14;;;;;;;;;;;27.50;97.30;;;;;;5073745;28;19951;-70
2022/07/24 12:10:39;;;;;;;;;;;27.40;98.50;;;;;;5073432;28;19909;-71
2022/07/24 12:13:05;;;;;;;;;;;27.30;99.40;;;;;;5072193;28;19947;-70
2022/07/24 12:15:31;;;;;;;;;;;27.20;99.90;;;;;;5073369;28;20356;-70
2022/07/24 12:18:00;;;;;;;;;;;27.20;99.90;;;;;;5073271;28;19923;-71
2022/07/24 12:20:25;;;;;;;;;;;27.10;99.90;;;;;;5073549;28;19935;-70
2022/07/24 12:22:52;;;;;;;;;;;27.00;99.90;;;;;;5073501;28;20367;-70
2022/07/24 12:25:17;;;;;;;;;;;26.80;99.90;;;;;;5071684;28;19908;-70
2022/07/24 12:27:44;;;;;;;;;;;26.80;99.90;;;;;;5073359;28;19927;-70
2022/07/24 12:30:18;;;;;;;;;;;26.70;99.90;;;;;;5055632;28;19955;-70
2022/07/24 12:33:12;;;;;;;;;;;26.60;99.90;;;;;;5073085;28;19926;-70
2022/07/24 12:35:56;;;;;;;;;;;26.50;99.90;;;;;;5059928;28;19909;-71
2022/07/24 12:38:25;;;;;;;;;;;26.40;99.90;;;;;;5073096;28;20323;-71
2022/07/24 12:40:50;;;;;;;;;;;26.40;99.90;;;;;;5072916;28;19935;-71
2022/07/24 12:43:16;;;;;;;;;;;26.20;99.90;;;;;;5073263;28;19916;-71
2022/07/24 12:45:41;;;;;;;;;;;26.10;99.90;;;;;;5073103;28;19912;-71
2022/07/24 12:48:08;;;;;;;;;;;26.00;99.90;;;;;;5073267;28;19917;-70
2022/07/24 12:50:35;;;;;;;;;;;26.00;99.90;;;;;;5073008;28;19908;-71
2022/07/24 12:53:08;;;;;;;;;;;25.90;99.90;;;;;;5088525;28;19920;-70
2022/07/24 12:55:34;;;;;;;;;;;25.80;99.90;;;;;;5072856;28;19991;-71
2022/07/24 12:58:00;;;;;;;;;;;25.60;99.90;;;;;;5088272;28;19916;-71
2022/07/24 13:00:26;;;;;;;;;;;25.50;99.90;;;;;;5072664;28;20300;-71
2022/07/24 13:02:52;;;;;;;;;;;25.30;99.90;;;;;;5072790;28;19927;-70
2022/07/24 13:05:35;;;;;;;;;;;25.30;99.90;;;;;;5088095;28;19916;-71
2022/07/24 13:08:01;;;;;;;;;;;25.20;99.90;;;;;;5072404;28;19974;-71
2022/07/24 13:10:26;;;;;;;;;;;25.00;99.90;;;;;;5072655;28;20335;-71
2022/07/24 13:12:52;;;;;;;;;;;24.90;99.90;;;;;;5072479;28;19917;-71
2022/07/24 13:15:18;;;;;;;;;;;24.80;99.90;;;;;;5072515;28;19927;-71
2022/07/24 13:17:43;;;;;;;;;;;24.80;99.90;;;;;;5071634;28;19921;-70
2022/07/24 13:20:09;;;;;;;;;;;24.60;99.90;;;;;;5071973;28;20017;-70
2022/07/24 13:22:34;;;;;;;;;;;24.50;99.90;;;;;;5072240;28;19924;-72
2022/07/24 13:25:00;;;;;;;;;;;24.50;99.90;;;;;;5071942;28;20350;-72
2022/07/24 13:27:26;;;;;;;;;;;24.40;99.90;;;;;;5072224;28;19924;-72
2022/07/24 13:29:51;;;;;;;;;;;24.30;99.90;;;;;;5072396;28;19912;-71
2022/07/24 13:32:17;;;;;;;;;;;24.20;99.90;;;;;;5072298;28;19921;-71
2022/07/24 13:34:42;;;;;;;;;;;24.00;99.90;;;;;;5087186;28;20388;-71
2022/07/24 13:37:08;;;;;;;;;;;23.90;99.90;;;;;;5087273;28;20015;-71
2022/07/24 13:39:35;;;;;;;;;;;23.80;99.90;;;;;;5071593;28;19924;-71
2022/07/24 13:42:01;;;;;;;;;;;23.60;99.90;;;;;;5071871;28;19920;-72
2022/07/24 13:44:26;;;;;;;;;;;23.50;99.90;;;;;;5071792;28;19915;-71
2022/07/24 13:46:52;;;;;;;;;;;23.40;99.90;;;;;;5071798;28;19923;-71
2022/07/24 13:49:18;;;;;;;;;;;23.30;99.90;;;;;;5071469;28;19908;-71
2022/07/24 13:51:43;;;;;;;;;;;23.10;99.90;;;;;;5071518;28;19916;-71
2022/07/24 13:54:09;;;;;;;;;;;23.00;99.90;;;;;;5071321;28;20018;-71
2022/07/24 13:56:34;;;;;;;;;;;22.80;99.90;;;;;;5071498;28;19912;-71
2022/07/24 13:59:00;;;;;;;;;;;22.60;99.90;;;;;;5071194;28;19958;-70
2022/07/24 14:01:25;;;;;;;;;;;22.50;99.90;;;;;;5071175;28;20007;-71
2022/07/24 14:03:51;;;;;;;;;;;22.30;99.90;;;;;;5071154;28;19943;-71
2022/07/24 14:06:16;;;;;;;;;;;22.30;99.90;;;;;;5071247;28;19909;-71
2022/07/24 14:08:42;;;;;;;;;;;22.10;99.90;;;;;;5071657;28;19920;-71
2022/07/24 14:11:08;;;;;;;;;;;22.10;99.90;;;;;;5071231;28;19991;-71
2022/07/24 14:13:34;;;;;;;;;;;22.00;99.90;;;;;;5071644;28;19961;-71
2022/07/24 14:16:00;;;;;;;;;;;21.90;99.90;;;;;;5071202;28;20334;-71